Time;durP1;ratioP1;P1;durP2;ratioP2;P2;SDS_P1;SDS_P2;PMS_P1;PMS_P2;Temp;Humidity;BMP_temperature;BMP_pressure;BME280_temperature;BME280_humidity;BME280_pressure;Samples;Min_cycle;Max_cycle;Signal;HPM_P1;HPM_P2
2022/12/07 00:00:30;;;;;;;;;;;3.10;99.90;;;;;;5065045;28;20022;-74
2022/12/07 00:02:56;;;;;;;;;;;3.10;99.90;;;;;;5009894;28;203932;-74
2022/12/07 00:05:22;;;;;;;;;;;3.10;99.90;;;;;;5052052;28;19920;-74
2022/12/07 00:07:48;;;;;;;;;;;3.10;99.90;;;;;;5015704;28;120384;-74
2022/12/07 00:10:14;;;;;;;;;;;3.10;99.90;;;;;;5055459;28;19920;-74
2022/12/07 00:12:40;;;;;;;;;;;3.10;99.90;;;;;;5022042;27;208695;-74
2022/12/07 00:15:06;;;;;;;;;;;3.20;99.90;;;;;;5058042;28;19924;-74
2022/12/07 00:17:33;;;;;;;;;;;3.20;99.90;;;;;;5025123;28;126966;-74
2022/12/07 00:19:59;;;;;;;;;;;3.10;99.90;;;;;;5073581;28;19931;-74
2022/12/07 00:22:25;;;;;;;;;;;3.10;99.90;;;;;;5014737;28;206920;-74
2022/12/07 00:24:51;;;;;;;;;;;3.10;99.90;;;;;;5086395;28;19920;-73
2022/12/07 00:27:17;;;;;;;;;;;3.10;99.90;;;;;;5034414;27;206023;-74
2022/12/07 00:29:43;;;;;;;;;;;3.10;99.90;;;;;;5027756;28;20018;-74
2022/12/07 00:32:09;;;;;;;;;;;3.10;99.90;;;;;;5015109;28;211856;-74
2022/12/07 00:34:35;;;;;;;;;;;3.20;99.90;;;;;;5050265;28;19928;-74
2022/12/07 00:37:01;;;;;;;;;;;3.10;99.90;;;;;;5016970;28;207659;-74
2022/12/07 00:39:27;;;;;;;;;;;3.10;99.90;;;;;;5067657;28;19928;-74
2022/12/07 00:41:53;;;;;;;;;;;3.00;99.90;;;;;;5022758;28;211872;-74
2022/12/07 00:44:19;;;;;;;;;;;3.00;99.90;;;;;;5046178;28;20369;-74
2022/12/07 00:46:45;;;;;;;;;;;3.00;99.90;;;;;;5049238;28;210411;-74
2022/12/07 00:49:11;;;;;;;;;;;2.90;99.90;;;;;;5019209;28;19948;-74
2022/12/07 00:51:37;;;;;;;;;;;2.90;99.90;;;;;;5067988;28;21442;-74
2022/12/07 00:54:03;;;;;;;;;;;2.90;99.90;;;;;;5014216;28;212300;-74
2022/12/07 00:56:29;;;;;;;;;;;2.90;99.90;;;;;;5065688;28;19987;-74
2022/12/07 00:59:02;;;;;;;;;;;2.80;99.90;;;;;;4984792;28;174598;-74
2022/12/07 01:01:29;;;;;;;;;;;2.80;99.90;;;;;;5063002;28;19921;-74
2022/12/07 01:03:55;;;;;;;;;;;2.80;99.90;;;;;;5018243;28;204033;-74
2022/12/07 01:06:22;;;;;;;;;;;2.90;99.90;;;;;;5062928;28;20365;-74
2022/12/07 01:08:48;;;;;;;;;;;2.90;99.90;;;;;;5035398;28;205316;-74
2022/12/07 01:11:15;;;;;;;;;;;2.90;99.90;;;;;;5059959;28;19932;-74
2022/12/07 01:13:41;;;;;;;;;;;2.90;99.90;;;;;;5010411;28;186835;-74
2022/12/07 01:16:08;;;;;;;;;;;2.90;99.90;;;;;;5045380;28;20123;-74
2022/12/07 01:18:35;;;;;;;;;;;2.90;99.90;;;;;;5006193;28;138628;-74
2022/12/07 01:21:12;;;;;;;;;;;2.90;99.90;;;;;;5062265;28;19931;-74
2022/12/07 01:23:38;;;;;;;;;;;2.90;99.90;;;;;;5018759;28;172377;-74
2022/12/07 01:26:06;;;;;;;;;;;2.90;99.90;;;;;;5065479;28;19928;-74
2022/12/07 01:28:32;;;;;;;;;;;3.00;99.90;;;;;;5036770;28;156323;-74
2022/12/07 01:30:59;;;;;;;;;;;3.10;99.90;;;;;;5058617;28;20309;-74
2022/12/07 01:33:26;;;;;;;;;;;3.20;99.90;;;;;;5000852;28;158180;-74
2022/12/07 01:35:52;;;;;;;;;;;3.30;99.90;;;;;;5042700;28;19924;-74
2022/12/07 01:38:18;;;;;;;;;;;3.40;99.90;;;;;;5019717;28;208706;-74
2022/12/07 01:40:44;;;;;;;;;;;3.50;99.90;;;;;;5062696;28;19924;-75
2022/12/07 01:43:19;;;;;;;;;;;3.50;99.90;;;;;;4996585;28;224757;-75
2022/12/07 01:45:45;;;;;;;;;;;3.50;99.90;;;;;;5061148;28;20283;-75
2022/12/07 01:48:12;;;;;;;;;;;3.50;99.90;;;;;;5037089;28;163024;-74
2022/12/07 01:50:38;;;;;;;;;;;3.50;99.90;;;;;;5059134;28;19928;-73
2022/12/07 01:53:06;;;;;;;;;;;3.70;99.90;;;;;;5002046;28;155624;-74
2022/12/07 01:55:34;;;;;;;;;;;3.80;99.90;;;;;;5057507;28;19931;-74
2022/12/07 01:58:00;;;;;;;;;;;3.80;99.90;;;;;;5014958;28;128624;-74
2022/12/07 02:00:26;;;;;;;;;;;3.80;99.90;;;;;;5062739;28;19925;-74
2022/12/07 02:03:06;;;;;;;;;;;3.80;99.90;;;;;;5021907;28;183318;-74
2022/12/07 02:05:33;;;;;;;;;;;3.70;99.90;;;;;;5078007;28;20951;-74
2022/12/07 02:07:59;;;;;;;;;;;3.70;99.90;;;;;;5036919;28;207987;-74
2022/12/07 02:10:26;;;;;;;;;;;3.70;99.90;;;;;;5068601;28;19929;-74
2022/12/07 02:12:57;;;;;;;;;;;3.60;99.90;;;;;;5014419;28;216829;-74
2022/12/07 02:15:26;;;;;;;;;;;3.60;99.90;;;;;;5063689;28;20392;-75
2022/12/07 02:18:21;;;;;;;;;;;3.50;99.90;;;;;;5017025;28;179950;-75
2022/12/07 02:21:06;;;;;;;;;;;3.50;99.90;;;;;;4983649;28;19929;-75
2022/12/07 02:23:56;;;;;;;;;;;3.40;99.90;;;;;;4953260;28;150752;-75
2022/12/07 02:26:31;;;;;;;;;;;3.50;99.90;;;;;;4988263;28;19940;-75
2022/12/07 02:29:15;;;;;;;;;;;3.50;99.90;;;;;;4946242;28;207221;-75
2022/12/07 02:31:48;;;;;;;;;;;3.40;99.90;;;;;;4961544;28;223748;-76
2022/12/07 02:34:14;;;;;;;;;;;3.40;99.90;;;;;;4956234;28;20349;-74
2022/12/07 02:36:43;;;;;;;;;;;3.40;99.90;;;;;;4962039;28;123505;-74
2022/12/07 02:39:14;;;;;;;;;;;3.40;99.90;;;;;;4939276;28;211819;-75
2022/12/07 02:41:44;;;;;;;;;;;3.40;99.90;;;;;;4979457;28;96100;-74
2022/12/07 02:44:12;;;;;;;;;;;3.40;99.90;;;;;;4949194;28;272810;-74
2022/12/07 02:46:41;;;;;;;;;;;3.40;99.90;;;;;;5013371;28;20358;-74
2022/12/07 02:49:08;;;;;;;;;;;3.40;99.90;;;;;;4930225;28;207029;-74
2022/12/07 02:51:38;;;;;;;;;;;3.40;99.90;;;;;;5003822;28;19921;-73
2022/12/07 02:54:08;;;;;;;;;;;3.40;99.90;;;;;;4948642;28;202468;-73
2022/12/07 02:56:34;;;;;;;;;;;3.40;99.90;;;;;;5032298;28;19951;-73
2022/12/07 02:59:03;;;;;;;;;;;3.40;99.90;;;;;;5014089;28;107413;-73
2022/12/07 03:01:38;;;;;;;;;;;3.40;99.90;;;;;;5092070;27;19931;-73
2022/12/07 03:04:27;;;;;;;;;;;3.40;99.90;;;;;;5022253;28;92560;-73
2022/12/07 03:06:56;;;;;;;;;;;3.30;99.90;;;;;;5039738;28;227448;-73
2022/12/07 03:09:28;;;;;;;;;;;3.40;99.90;;;;;;5056985;28;19931;-73
2022/12/07 03:12:17;;;;;;;;;;;3.40;99.90;;;;;;5014900;28;211887;-73
2022/12/07 03:14:49;;;;;;;;;;;3.50;99.90;;;;;;5061948;28;19924;-73
2022/12/07 03:17:17;;;;;;;;;;;3.40;99.90;;;;;;5008211;28;224304;-73
2022/12/07 03:19:45;;;;;;;;;;;3.40;99.90;;;;;;5052625;28;20408;-73
2022/12/07 03:22:12;;;;;;;;;;;3.40;99.90;;;;;;5019907;28;87495;-73
2022/12/07 03:24:41;;;;;;;;;;;3.40;99.90;;;;;;5042522;28;20011;-73
2022/12/07 03:27:13;;;;;;;;;;;3.40;99.90;;;;;;5013550;27;211845;-73
2022/12/07 03:29:52;;;;;;;;;;;3.40;99.90;;;;;;5045102;28;19933;-73
2022/12/07 03:32:28;;;;;;;;;;;3.40;99.90;;;;;;5013788;28;129570;-73
2022/12/07 03:34:59;;;;;;;;;;;3.50;99.90;;;;;;5058384;28;19994;-73
2022/12/07 03:37:32;;;;;;;;;;;3.50;99.90;;;;;;5029102;28;197364;-73
2022/12/07 03:40:14;;;;;;;;;;;3.50;99.90;;;;;;5055836;28;19928;-73
2022/12/07 03:42:40;;;;;;;;;;;3.50;99.90;;;;;;5008027;28;197147;-72
2022/12/07 03:45:07;;;;;;;;;;;3.50;99.90;;;;;;5055315;28;20516;-73
2022/12/07 03:47:34;;;;;;;;;;;3.40;99.90;;;;;;5001108;28;206663;-73
2022/12/07 03:50:05;;;;;;;;;;;3.40;99.90;;;;;;5054087;28;19929;-73
2022/12/07 03:52:54;;;;;;;;;;;3.40;99.90;;;;;;5020018;28;120527;-73
2022/12/07 03:55:20;;;;;;;;;;;3.40;99.90;;;;;;5056355;28;19931;-73
2022/12/07 03:57:47;;;;;;;;;;;3.40;99.90;;;;;;5040593;27;132223;-74
2022/12/07 04:00:13;;;;;;;;;;;3.30;99.90;;;;;;5046459;28;19921;-73
2022/12/07 04:02:39;;;;;;;;;;;3.30;99.90;;;;;;5025936;28;192428;-73
2022/12/07 04:05:06;;;;;;;;;;;3.30;99.90;;;;;;5064745;28;19921;-73
2022/12/07 04:07:32;;;;;;;;;;;3.20;99.90;;;;;;5010924;28;210776;-73
2022/12/07 04:09:58;;;;;;;;;;;3.20;99.90;;;;;;5053320;28;19936;-73
2022/12/07 04:12:24;;;;;;;;;;;3.20;99.90;;;;;;5053060;28;157022;-73
2022/12/07 04:14:50;;;;;;;;;;;3.10;99.90;;;;;;5093411;27;20042;-73
2022/12/07 04:17:16;;;;;;;;;;;3.10;99.90;;;;;;5020971;28;154961;-73
2022/12/07 04:19:42;;;;;;;;;;;3.20;99.90;;;;;;5061728;28;19963;-73
2022/12/07 04:22:08;;;;;;;;;;;3.30;99.90;;;;;;5018005;28;158745;-73
2022/12/07 04:24:34;;;;;;;;;;;3.40;99.90;;;;;;5086787;28;19931;-73
2022/12/07 04:27:00;;;;;;;;;;;3.40;99.90;;;;;;5017263;28;207975;-74
2022/12/07 04:29:26;;;;;;;;;;;3.40;99.90;;;;;;5065298;28;20016;-74
2022/12/07 04:31:52;;;;;;;;;;;3.50;99.90;;;;;;5046501;28;204211;-73
2022/12/07 04:34:18;;;;;;;;;;;3.40;99.90;;;;;;5103187;28;19932;-72
2022/12/07 04:36:47;;;;;;;;;;;3.40;99.90;;;;;;5061125;28;220662;-72
2022/12/07 04:39:18;;;;;;;;;;;3.50;99.90;;;;;;5034291;28;19932;-73
2022/12/07 04:41:44;;;;;;;;;;;3.50;99.90;;;;;;5051829;28;208072;-72
2022/12/07 04:44:14;;;;;;;;;;;3.40;99.90;;;;;;5035292;28;19924;-73
2022/12/07 04:46:40;;;;;;;;;;;3.40;99.90;;;;;;5056633;28;209498;-73
2022/12/07 04:49:06;;;;;;;;;;;3.30;99.90;;;;;;5030604;28;206653;-73
2022/12/07 04:51:32;;;;;;;;;;;3.30;99.90;;;;;;5078933;28;20444;-73
2022/12/07 04:53:58;;;;;;;;;;;3.30;99.90;;;;;;4992076;28;213221;-73
2022/12/07 04:56:24;;;;;;;;;;;3.30;99.90;;;;;;5100732;27;19920;-73
2022/12/07 04:58:51;;;;;;;;;;;3.30;99.90;;;;;;5011655;28;210918;-73
2022/12/07 05:01:17;;;;;;;;;;;3.20;99.90;;;;;;5061313;28;20397;-73
2022/12/07 05:03:43;;;;;;;;;;;3.20;99.90;;;;;;5024384;28;75552;-73
2022/12/07 05:06:09;;;;;;;;;;;3.20;99.90;;;;;;5068571;28;19929;-73
2022/12/07 05:08:35;;;;;;;;;;;3.10;99.90;;;;;;5017427;28;198710;-73
2022/12/07 05:11:02;;;;;;;;;;;3.10;99.90;;;;;;5081246;28;20309;-74
2022/12/07 05:13:28;;;;;;;;;;;3.10;99.90;;;;;;5002829;28;208943;-71
2022/12/07 05:15:54;;;;;;;;;;;3.00;99.90;;;;;;5064753;28;20385;-74
2022/12/07 05:18:20;;;;;;;;;;;3.00;99.90;;;;;;5018941;28;169076;-74
2022/12/07 05:20:46;;;;;;;;;;;3.00;99.90;;;;;;5065291;28;19929;-73
2022/12/07 05:23:12;;;;;;;;;;;3.00;99.90;;;;;;5009100;28;206880;-74
2022/12/07 05:25:38;;;;;;;;;;;2.90;99.90;;;;;;5054693;28;19921;-74
2022/12/07 05:28:04;;;;;;;;;;;2.90;99.90;;;;;;5014753;28;216259;-74
2022/12/07 05:30:31;;;;;;;;;;;2.80;99.90;;;;;;5046411;28;19929;-74
2022/12/07 05:32:57;;;;;;;;;;;2.80;99.90;;;;;;5004898;28;207577;-74
2022/12/07 05:35:23;;;;;;;;;;;2.80;99.90;;;;;;5051986;28;19932;-74
2022/12/07 05:37:49;;;;;;;;;;;2.70;99.90;;;;;;5032715;28;137150;-74
2022/12/07 05:40:15;;;;;;;;;;;2.70;99.90;;;;;;5046619;28;19936;-74
2022/12/07 05:42:41;;;;;;;;;;;2.70;99.90;;;;;;5017065;28;207441;-74
2022/12/07 05:45:08;;;;;;;;;;;2.60;99.90;;;;;;5064241;28;19920;-74
2022/12/07 05:47:34;;;;;;;;;;;2.60;99.90;;;;;;5010455;28;159182;-74
2022/12/07 05:50:02;;;;;;;;;;;2.60;99.90;;;;;;5046800;28;19939;-74
2022/12/07 05:52:28;;;;;;;;;;;2.60;99.90;;;;;;5014257;28;182288;-74
2022/12/07 05:54:54;;;;;;;;;;;2.60;99.90;;;;;;5058784;28;19928;-73
2022/12/07 05:57:20;;;;;;;;;;;2.50;99.90;;;;;;5007850;28;150794;-73
2022/12/07 05:59:46;;;;;;;;;;;2.50;99.90;;;;;;5064774;28;19969;-73
2022/12/07 06:02:13;;;;;;;;;;;2.50;99.90;;;;;;5007971;28;151873;-73
2022/12/07 06:04:40;;;;;;;;;;;2.60;99.90;;;;;;5063948;28;19925;-73
2022/12/07 06:07:06;;;;;;;;;;;2.50;99.90;;;;;;5024232;28;130778;-73
2022/12/07 06:09:33;;;;;;;;;;;2.60;99.90;;;;;;5063204;28;19928;-73
2022/12/07 06:14:44;;;;;;;;;;;2.60;99.90;;;;;;5082085;28;19920;-73
2022/12/07 06:17:10;;;;;;;;;;;2.60;99.90;;;;;;5020863;28;207473;-73
2022/12/07 06:19:36;;;;;;;;;;;2.60;99.90;;;;;;5060944;28;19925;-74
2022/12/07 06:22:04;;;;;;;;;;;2.60;99.90;;;;;;5013698;28;210390;-74
2022/12/07 06:24:30;;;;;;;;;;;2.60;99.90;;;;;;5049602;28;20416;-74
2022/12/07 06:26:56;;;;;;;;;;;2.60;99.90;;;;;;5013546;28;218386;-74
2022/12/07 06:29:22;;;;;;;;;;;2.60;99.90;;;;;;5062336;28;20324;-74
2022/12/07 06:31:48;;;;;;;;;;;2.60;99.90;;;;;;5028614;27;208231;-73
2022/12/07 06:34:16;;;;;;;;;;;2.60;99.90;;;;;;5042101;28;19935;-74
2022/12/07 06:36:42;;;;;;;;;;;2.60;99.90;;;;;;5047884;28;207806;-74
2022/12/07 06:39:08;;;;;;;;;;;2.60;99.90;;;;;;5042751;28;44103;-74
2022/12/07 06:41:36;;;;;;;;;;;2.60;99.90;;;;;;5061090;28;19920;-74
2022/12/07 06:44:03;;;;;;;;;;;2.70;99.90;;;;;;4993779;28;96261;-73
2022/12/07 06:46:28;;;;;;;;;;;2.80;99.90;;;;;;5061424;28;19928;-73
2022/12/07 06:48:54;;;;;;;;;;;2.90;99.90;;;;;;5018960;28;209294;-74
2022/12/07 06:51:20;;;;;;;;;;;2.90;99.90;;;;;;5062164;28;20381;-73
2022/12/07 06:53:46;;;;;;;;;;;3.00;99.90;;;;;;5016319;28;191292;-73
2022/12/07 06:56:12;;;;;;;;;;;2.90;99.90;;;;;;5062242;28;19929;-73
2022/12/07 06:58:38;;;;;;;;;;;2.90;99.90;;;;;;4984048;28;147777;-72
2022/12/07 07:01:12;;;;;;;;;;;3.00;99.90;;;;;;5059292;28;19921;-73
2022/12/07 07:03:38;;;;;;;;;;;3.00;99.90;;;;;;4996733;28;186557;-72
2022/12/07 07:06:05;;;;;;;;;;;2.90;99.90;;;;;;5066852;28;19927;-71
2022/12/07 07:08:31;;;;;;;;;;;2.90;99.90;;;;;;5034550;28;70373;-72
2022/12/07 07:10:57;;;;;;;;;;;2.80;99.90;;;;;;5068413;28;19930;-71
2022/12/07 07:13:22;;;;;;;;;;;2.80;99.90;;;;;;5010655;28;136955;-72
2022/12/07 07:15:48;;;;;;;;;;;2.70;99.90;;;;;;5063954;28;19920;-71
2022/12/07 07:18:14;;;;;;;;;;;2.70;99.90;;;;;;5015290;28;170479;-72
2022/12/07 07:20:41;;;;;;;;;;;2.70;99.90;;;;;;5060591;28;20495;-72
2022/12/07 07:23:07;;;;;;;;;;;2.60;99.90;;;;;;5020437;28;130739;-72
2022/12/07 07:25:33;;;;;;;;;;;2.60;99.90;;;;;;5062354;28;19921;-73
2022/12/07 07:27:59;;;;;;;;;;;2.70;99.90;;;;;;5023890;28;135153;-72
2022/12/07 07:30:26;;;;;;;;;;;2.70;99.90;;;;;;5086826;28;19928;-72
2022/12/07 07:32:56;;;;;;;;;;;2.70;99.90;;;;;;5031730;28;161299;-72
2022/12/07 07:35:22;;;;;;;;;;;2.70;99.90;;;;;;5081721;28;19920;-72
2022/12/07 07:37:48;;;;;;;;;;;2.70;99.90;;;;;;5018726;28;112784;-71
2022/12/07 07:40:14;;;;;;;;;;;2.70;99.90;;;;;;5064631;28;19921;-71
2022/12/07 07:42:49;;;;;;;;;;;2.70;99.90;;;;;;5022092;28;133991;-71
2022/12/07 07:45:15;;;;;;;;;;;2.70;99.90;;;;;;5064487;28;19924;-71
2022/12/07 07:47:41;;;;;;;;;;;2.70;99.90;;;;;;5010936;28;174675;-72
2022/12/07 07:50:07;;;;;;;;;;;2.70;99.90;;;;;;5039884;28;19924;-72
2022/12/07 07:52:33;;;;;;;;;;;2.70;99.90;;;;;;5015647;28;190767;-72
2022/12/07 07:54:59;;;;;;;;;;;2.60;99.90;;;;;;5051516;28;19924;-72
2022/12/07 07:57:25;;;;;;;;;;;2.60;99.90;;;;;;5022120;28;208172;-72
2022/12/07 07:59:51;;;;;;;;;;;2.60;99.90;;;;;;5047247;28;19924;-72
2022/12/07 08:02:18;;;;;;;;;;;2.50;99.90;;;;;;5037137;27;131329;-72
2022/12/07 08:04:44;;;;;;;;;;;2.60;99.90;;;;;;5071605;28;19965;-72
2022/12/07 08:07:11;;;;;;;;;;;2.50;99.90;;;;;;5020720;28;209046;-72
2022/12/07 08:09:37;;;;;;;;;;;2.50;99.90;;;;;;5063863;28;19931;-72
2022/12/07 08:12:03;;;;;;;;;;;2.50;99.90;;;;;;5017549;28;207804;-72
2022/12/07 08:14:29;;;;;;;;;;;2.40;99.90;;;;;;5057910;28;19925;-72
2022/12/07 08:16:55;;;;;;;;;;;2.50;99.90;;;;;;5012930;28;210169;-72
2022/12/07 08:19:21;;;;;;;;;;;2.40;99.90;;;;;;5046810;28;19935;-72
2022/12/07 08:21:47;;;;;;;;;;;2.40;99.90;;;;;;5035422;28;217865;-72
2022/12/07 08:24:13;;;;;;;;;;;2.50;99.90;;;;;;5019521;28;19925;-73
2022/12/07 08:26:40;;;;;;;;;;;2.50;99.90;;;;;;5061510;28;208116;-72
2022/12/07 08:29:05;;;;;;;;;;;2.70;99.90;;;;;;5045331;28;180422;-72
2022/12/07 08:31:32;;;;;;;;;;;2.70;99.90;;;;;;5071490;28;19931;-72
2022/12/07 08:33:58;;;;;;;;;;;2.90;99.90;;;;;;5005840;28;141984;-71
2022/12/07 08:36:24;;;;;;;;;;;2.90;99.90;;;;;;5083844;28;19924;-72
2022/12/07 08:38:50;;;;;;;;;;;3.00;99.90;;;;;;4986361;28;147828;-72
2022/12/07 08:41:16;;;;;;;;;;;3.00;99.90;;;;;;5096267;27;21705;-72
2022/12/07 08:43:42;;;;;;;;;;;3.00;99.90;;;;;;5029545;28;207370;-72
2022/12/07 08:46:14;;;;;;;;;;;3.00;99.90;;;;;;5067316;28;19920;-72
2022/12/07 08:48:43;;;;;;;;;;;3.00;99.90;;;;;;5026060;28;123163;-72
2022/12/07 08:51:09;;;;;;;;;;;2.90;99.90;;;;;;5098013;28;19921;-72
2022/12/07 08:53:36;;;;;;;;;;;2.90;99.90;;;;;;5023637;28;152701;-72
2022/12/07 08:56:02;;;;;;;;;;;2.90;99.90;;;;;;5063865;28;19924;-72
2022/12/07 08:58:28;;;;;;;;;;;2.80;99.90;;;;;;5000737;28;135772;-73
2022/12/07 09:00:54;;;;;;;;;;;2.80;99.90;;;;;;5063584;28;19928;-73
2022/12/07 09:03:20;;;;;;;;;;;2.80;99.90;;;;;;5001920;28;128584;-73
2022/12/07 09:05:46;;;;;;;;;;;2.80;99.90;;;;;;5095164;28;20021;-73
2022/12/07 09:08:12;;;;;;;;;;;2.80;99.90;;;;;;5011550;28;211172;-73
2022/12/07 09:10:38;;;;;;;;;;;2.80;99.90;;;;;;5063220;28;19921;-73
2022/12/07 09:13:04;;;;;;;;;;;2.90;99.90;;;;;;5031100;28;174863;-73
2022/12/07 09:15:31;;;;;;;;;;;2.90;99.90;;;;;;5068815;28;19928;-73
2022/12/07 09:17:57;;;;;;;;;;;3.00;99.90;;;;;;5025972;28;207361;-73
2022/12/07 09:20:23;;;;;;;;;;;3.10;99.90;;;;;;5059314;28;19931;-73
2022/12/07 09:22:49;;;;;;;;;;;3.20;99.90;;;;;;5008357;28;206400;-73
2022/12/07 09:25:14;;;;;;;;;;;3.30;99.90;;;;;;5057271;28;19930;-73
2022/12/07 09:27:41;;;;;;;;;;;3.30;99.90;;;;;;5021809;28;203510;-74
2022/12/07 09:30:07;;;;;;;;;;;3.40;99.90;;;;;;5070822;28;19926;-73
2022/12/07 09:32:33;;;;;;;;;;;3.50;99.90;;;;;;5012179;28;186651;-73
2022/12/07 09:34:59;;;;;;;;;;;3.60;99.90;;;;;;5053281;28;19924;-73
2022/12/07 09:37:25;;;;;;;;;;;3.60;99.90;;;;;;5034356;28;192657;-73
2022/12/07 09:39:51;;;;;;;;;;;3.60;99.90;;;;;;5052704;28;19939;-73
2022/12/07 09:42:27;;;;;;;;;;;3.70;99.90;;;;;;5026094;28;131375;-73
2022/12/07 09:44:53;;;;;;;;;;;3.60;99.90;;;;;;5072665;28;20305;-71
2022/12/07 09:47:19;;;;;;;;;;;3.60;99.90;;;;;;5017357;28;205153;-70
2022/12/07 09:49:45;;;;;;;;;;;3.70;99.90;;;;;;5057062;28;19927;-70
2022/12/07 09:52:16;;;;;;;;;;;3.70;99.90;;;;;;5016841;28;207508;-70
2022/12/07 09:54:45;;;;;;;;;;;3.80;99.90;;;;;;5065987;28;19925;-71
2022/12/07 09:57:12;;;;;;;;;;;3.80;99.90;;;;;;5014245;28;207997;-71
2022/12/07 09:59:38;;;;;;;;;;;3.80;99.90;;;;;;5061321;28;19928;-71
2022/12/07 10:02:21;;;;;;;;;;;3.80;99.90;;;;;;5011713;27;211705;-71
2022/12/07 10:04:47;;;;;;;;;;;3.90;99.90;;;;;;5055904;28;19935;-71
2022/12/07 10:07:13;;;;;;;;;;;3.90;99.90;;;;;;5018409;28;108662;-71
2022/12/07 10:09:39;;;;;;;;;;;3.90;99.90;;;;;;5045891;28;19920;-71
2022/12/07 10:12:09;;;;;;;;;;;4.00;99.90;;;;;;5020106;28;127742;-71
2022/12/07 10:14:36;;;;;;;;;;;4.00;99.90;;;;;;5061063;28;19927;-71
2022/12/07 10:17:02;;;;;;;;;;;4.10;99.90;;;;;;5017583;28;209141;-70
2022/12/07 10:19:30;;;;;;;;;;;4.20;99.90;;;;;;5082967;28;19935;-71
2022/12/07 10:21:58;;;;;;;;;;;4.10;99.90;;;;;;5016901;28;207369;-71
2022/12/07 10:24:24;;;;;;;;;;;4.20;99.90;;;;;;5061615;28;19924;-71
2022/12/07 10:26:51;;;;;;;;;;;4.20;99.90;;;;;;5021454;28;207818;-71
2022/12/07 10:29:20;;;;;;;;;;;4.30;99.90;;;;;;5065779;28;20040;-72
2022/12/07 10:31:49;;;;;;;;;;;4.40;99.90;;;;;;5041235;27;207529;-72
2022/12/07 10:34:28;;;;;;;;;;;4.50;99.90;;;;;;5032012;28;19955;-72
2022/12/07 10:37:07;;;;;;;;;;;4.60;99.90;;;;;;5022730;28;208093;-72
2022/12/07 10:39:40;;;;;;;;;;;4.70;99.90;;;;;;5079176;28;20274;-72
2022/12/07 10:42:15;;;;;;;;;;;4.80;99.90;;;;;;5026984;28;114202;-72
2022/12/07 10:44:42;;;;;;;;;;;4.80;99.90;;;;;;5059219;28;19925;-73
2022/12/07 10:47:08;;;;;;;;;;;4.80;99.90;;;;;;5002587;27;168938;-73
2022/12/07 10:49:46;;;;;;;;;;;4.80;99.90;;;;;;5058461;28;20015;-72
2022/12/07 10:52:18;;;;;;;;;;;4.80;99.90;;;;;;5054309;27;206543;-73
2022/12/07 10:54:53;;;;;;;;;;;4.80;99.90;;;;;;5051938;28;19920;-73
2022/12/07 10:57:19;;;;;;;;;;;4.80;99.90;;;;;;5041683;28;135505;-72
2022/12/07 11:00:04;;;;;;;;;;;4.90;99.90;;;;;;5048829;28;19932;-73
2022/12/07 11:02:44;;;;;;;;;;;5.00;99.90;;;;;;5009360;28;129040;-73
2022/12/07 11:05:23;;;;;;;;;;;5.10;99.90;;;;;;5056591;28;19923;-73
2022/12/07 11:08:08;;;;;;;;;;;5.20;99.90;;;;;;5023197;28;128543;-73
2022/12/07 11:10:34;;;;;;;;;;;5.20;99.90;;;;;;5066189;28;19925;-73
2022/12/07 11:13:19;;;;;;;;;;;5.30;99.90;;;;;;5030688;28;208959;-73
2022/12/07 11:15:55;;;;;;;;;;;5.30;99.90;;;;;;5060037;28;19931;-71
2022/12/07 11:18:23;;;;;;;;;;;5.30;99.90;;;;;;5037614;28;208291;-72
2022/12/07 11:21:16;;;;;;;;;;;5.30;99.90;;;;;;5060180;28;19924;-73
2022/12/07 11:23:48;;;;;;;;;;;5.40;99.90;;;;;;5015015;28;207939;-72
2022/12/07 11:26:34;;;;;;;;;;;5.40;99.90;;;;;;5091232;28;20388;-72
2022/12/07 11:29:03;;;;;;;;;;;5.60;99.90;;;;;;5017485;28;100266;-72
2022/12/07 11:31:51;;;;;;;;;;;5.60;99.90;;;;;;5095573;28;19924;-72
2022/12/07 11:34:23;;;;;;;;;;;5.70;99.90;;;;;;4994431;28;211955;-72
2022/12/07 11:36:52;;;;;;;;;;;5.80;99.90;;;;;;5051334;28;207524;-71
2022/12/07 11:39:18;;;;;;;;;;;5.90;99.90;;;;;;5040689;28;19940;-71
2022/12/07 11:41:46;;;;;;;;;;;5.90;99.90;;;;;;5041003;28;213109;-71
2022/12/07 11:44:19;;;;;;;;;;;6.00;99.90;;;;;;5013367;28;19928;-71
2022/12/07 11:46:48;;;;;;;;;;;6.10;99.90;;;;;;5051417;28;211799;-72
2022/12/07 11:49:32;;;;;;;;;;;6.20;99.90;;;;;;5021229;28;19925;-72
2022/12/07 11:52:01;;;;;;;;;;;6.30;99.90;;;;;;5046913;28;209201;-72
2022/12/07 11:54:29;;;;;;;;;;;6.30;99.90;;;;;;5054352;28;20460;-72
2022/12/07 11:56:59;;;;;;;;;;;6.40;99.90;;;;;;5049854;28;237128;-72
2022/12/07 11:59:32;;;;;;;;;;;6.40;99.90;;;;;;5042310;28;19928;-72
2022/12/07 12:02:15;;;;;;;;;;;6.40;99.90;;;;;;5005117;28;215819;-72
2022/12/07 12:04:47;;;;;;;;;;;6.40;99.90;;;;;;5055848;28;19936;-72
2022/12/07 12:07:17;;;;;;;;;;;6.50;99.90;;;;;;5048506;27;215955;-72
2022/12/07 12:09:50;;;;;;;;;;;6.50;99.90;;;;;;5065053;28;19928;-72
2022/12/07 12:12:36;;;;;;;;;;;6.50;99.90;;;;;;5020913;28;276757;-73
2022/12/07 12:15:14;;;;;;;;;;;6.60;99.90;;;;;;5063773;28;20040;-71
2022/12/07 12:17:44;;;;;;;;;;;6.70;99.90;;;;;;5023187;28;160071;-73
2022/12/07 12:20:22;;;;;;;;;;;6.90;99.90;;;;;;5051758;28;19966;-73
2022/12/07 12:22:48;;;;;;;;;;;7.00;99.90;;;;;;5043852;27;154620;-73
2022/12/07 12:25:26;;;;;;;;;;;7.30;99.90;;;;;;5065414;28;20019;-73
2022/12/07 12:27:55;;;;;;;;;;;7.00;99.90;;;;;;5036151;28;164783;-73
2022/12/07 12:30:30;;;;;;;;;;;7.30;99.90;;;;;;5068550;28;19932;-74
2022/12/07 12:33:12;;;;;;;;;;;7.80;99.90;;;;;;5018478;28;206781;-73
2022/12/07 12:35:38;;;;;;;;;;;7.60;99.90;;;;;;5068076;28;19924;-72
2022/12/07 12:38:23;;;;;;;;;;;7.40;99.90;;;;;;5023613;28;125290;-72
2022/12/07 12:40:49;;;;;;;;;;;7.10;99.90;;;;;;5063980;28;19933;-72
2022/12/07 12:43:33;;;;;;;;;;;6.80;99.90;;;;;;5043352;27;211831;-72
2022/12/07 12:46:18;;;;;;;;;;;6.50;99.90;;;;;;5096746;28;19947;-72
2022/12/07 12:48:44;;;;;;;;;;;6.40;99.90;;;;;;5021044;28;195451;-72
2022/12/07 12:51:29;;;;;;;;;;;6.20;99.90;;;;;;5077082;28;19924;-72
2022/12/07 12:54:03;;;;;;;;;;;6.10;99.90;;;;;;5026804;28;159286;-71
2022/12/07 12:56:38;;;;;;;;;;;5.80;99.90;;;;;;5071596;28;20390;-70
2022/12/07 12:59:39;;;;;;;;;;;5.60;99.90;;;;;;5042673;28;206965;-71
2022/12/07 13:02:23;;;;;;;;;;;5.40;99.90;;;;;;5006760;28;153602;-71
2022/12/07 13:05:07;;;;;;;;;;;5.20;99.90;;;;;;5054084;28;19921;-70
2022/12/07 13:07:49;;;;;;;;;;;5.00;99.90;;;;;;5017588;28;92817;-72
2022/12/07 13:10:30;;;;;;;;;;;4.70;99.90;;;;;;5055873;28;19925;-71
2022/12/07 13:12:56;;;;;;;;;;;4.50;99.90;;;;;;5005050;28;116407;-70
2022/12/07 13:15:43;;;;;;;;;;;4.40;99.90;;;;;;5028793;28;19928;-71
2022/12/07 13:18:27;;;;;;;;;;;4.30;99.90;;;;;;4973814;28;206777;-71
2022/12/07 13:20:53;;;;;;;;;;;4.30;99.90;;;;;;5046380;28;19925;-72
2022/12/07 13:23:26;;;;;;;;;;;4.30;99.90;;;;;;5003641;28;202481;-72
2022/12/07 13:25:55;;;;;;;;;;;4.30;99.90;;;;;;5056437;28;19932;-72
2022/12/07 13:28:22;;;;;;;;;;;4.30;99.90;;;;;;4974381;28;209537;-72
2022/12/07 13:30:59;;;;;;;;;;;4.40;99.90;;;;;;5047197;28;19924;-72
2022/12/07 13:33:27;;;;;;;;;;;4.40;99.90;;;;;;5003928;28;192706;-72
2022/12/07 13:35:53;;;;;;;;;;;4.40;99.90;;;;;;5029757;28;19921;-72
2022/12/07 13:38:31;;;;;;;;;;;4.40;99.90;;;;;;4986477;28;209584;-72
2022/12/07 13:41:12;;;;;;;;;;;4.40;99.90;;;;;;5066864;28;19920;-72
2022/12/07 13:43:53;;;;;;;;;;;4.40;99.90;;;;;;5029088;28;209240;-72
2022/12/07 13:46:24;;;;;;;;;;;4.40;99.90;;;;;;5082736;28;20385;-72
2022/12/07 13:48:50;;;;;;;;;;;4.40;99.90;;;;;;5014864;28;207143;-72
2022/12/07 13:51:24;;;;;;;;;;;4.40;99.90;;;;;;5065310;28;19939;-72
2022/12/07 13:53:54;;;;;;;;;;;4.30;99.90;;;;;;5033203;27;208666;-72
2022/12/07 13:56:21;;;;;;;;;;;4.40;99.90;;;;;;5065612;28;19924;-72
2022/12/07 13:58:47;;;;;;;;;;;4.40;99.90;;;;;;5005088;28;126135;-71
2022/12/07 14:01:13;;;;;;;;;;;4.40;99.90;;;;;;5097674;28;19920;-71
2022/12/07 14:03:39;;;;;;;;;;;4.30;99.90;;;;;;5005610;28;203930;-71
2022/12/07 14:06:11;;;;;;;;;;;4.30;99.90;;;;;;5067022;28;19920;-71
2022/12/07 14:08:37;;;;;;;;;;;4.40;99.90;;;;;;5000150;27;208318;-71
2022/12/07 14:11:03;;;;;;;;;;;4.30;99.90;;;;;;5067235;28;19924;-71
2022/12/07 14:13:33;;;;;;;;;;;4.30;99.90;;;;;;5009266;28;180560;-71
2022/12/07 14:16:00;;;;;;;;;;;4.30;99.90;;;;;;5062587;28;19927;-71
2022/12/07 14:18:29;;;;;;;;;;;4.20;99.90;;;;;;4999319;28;208096;-72
2022/12/07 14:21:04;;;;;;;;;;;4.30;99.90;;;;;;5059432;28;19921;-71
2022/12/07 14:23:30;;;;;;;;;;;4.20;99.90;;;;;;5032648;28;100070;-72
2022/12/07 14:26:15;;;;;;;;;;;4.20;99.90;;;;;;5060809;28;20322;-71
2022/12/07 14:28:43;;;;;;;;;;;4.20;99.90;;;;;;5019105;28;159414;-71
2022/12/07 14:31:21;;;;;;;;;;;4.20;99.90;;;;;;5065535;28;19980;-70
2022/12/07 14:33:47;;;;;;;;;;;4.20;99.90;;;;;;5003093;28;198375;-71
2022/12/07 14:36:13;;;;;;;;;;;4.10;99.90;;;;;;5060576;28;19924;-71
2022/12/07 14:38:39;;;;;;;;;;;4.20;99.90;;;;;;5018430;28;212011;-71